createdAt,value
2022-09-03T00:00:15.260Z,27.92
2022-09-03T00:02:50.737Z,27.92
2022-09-03T00:05:25.021Z,27.96
2022-09-03T00:08:03.421Z,27.97
2022-09-03T00:10:38.763Z,27.99
2022-09-03T00:13:10.401Z,28.02
2022-09-03T00:15:40.555Z,28.03
2022-09-03T00:18:12.883Z,28.03
2022-09-03T00:20:45.020Z,28.01
2022-09-03T00:23:19.802Z,28.02
2022-09-03T00:25:54.919Z,28.02
2022-09-03T00:28:28.921Z,28.04
2022-09-03T00:31:08.205Z,28.05
2022-09-03T00:33:39.862Z,28.01
2022-09-03T00:36:17.041Z,28.00
2022-09-03T00:38:44.400Z,27.99
2022-09-03T00:41:28.762Z,27.97
2022-09-03T00:44:31.442Z,27.98
2022-09-03T00:47:09.382Z,27.99
2022-09-03T00:49:55.997Z,27.97
2022-09-03T00:52:41.107Z,28.01
2022-09-03T00:55:21.556Z,28.01
2022-09-03T00:58:04.773Z,28.06
2022-09-03T01:00:33.722Z,28.02
2022-09-03T01:03:07.878Z,27.97
2022-09-03T01:05:49.402Z,27.89
2022-09-03T01:08:44.042Z,27.82
2022-09-03T01:11:25.267Z,27.82
2022-09-03T01:14:03.341Z,27.80
2022-09-03T01:16:42.662Z,27.80
2022-09-03T01:19:33.841Z,27.81
2022-09-03T01:22:24.571Z,27.83
2022-09-03T01:25:30.785Z,27.75
2022-09-03T01:28:16.872Z,27.74
2022-09-03T01:30:51.147Z,27.71
2022-09-03T01:33:28.557Z,27.70
2022-09-03T01:36:04.755Z,27.66
2022-09-03T01:38:40.341Z,27.39
2022-09-03T01:41:20.907Z,26.73
2022-09-03T01:44:02.487Z,26.29
2022-09-03T01:46:39.227Z,25.95
2022-09-03T01:49:18.849Z,25.66
2022-09-03T01:51:46.207Z,25.41
2022-09-03T01:54:37.174Z,25.20
2022-09-03T01:57:37.528Z,25.19
2022-09-03T02:00:11.116Z,25.21
2022-09-03T02:02:40.178Z,25.14
2022-09-03T02:05:10.598Z,25.11
2022-09-03T02:07:40.554Z,25.07
2022-09-03T02:10:11.316Z,25.02
2022-09-03T02:12:41.957Z,24.96
2022-09-03T02:15:14.796Z,24.96
2022-09-03T02:17:45.595Z,24.91
2022-09-03T02:20:19.115Z,24.85
2022-09-03T02:22:48.099Z,24.80
2022-09-03T02:25:16.280Z,24.76
2022-09-03T02:27:45.076Z,24.82
2022-09-03T02:30:13.976Z,24.85
2022-09-03T02:32:41.315Z,24.92
2022-09-03T02:35:09.724Z,24.97
2022-09-03T02:37:36.876Z,24.96
2022-09-03T02:40:04.642Z,24.96
2022-09-03T02:42:31.794Z,24.90
2022-09-03T02:45:08.176Z,24.80
2022-09-03T02:47:40.976Z,24.68
2022-09-03T02:50:09.156Z,24.64
2022-09-03T02:52:36.318Z,24.56
2022-09-03T02:55:03.758Z,24.60
2022-09-03T02:57:30.895Z,24.73
2022-09-03T02:59:58.018Z,24.68
2022-09-03T03:02:25.211Z,24.74
2022-09-03T03:04:54.156Z,24.76
2022-09-03T03:07:21.596Z,24.73
2022-09-03T03:09:48.754Z,24.75
2022-09-03T03:12:15.874Z,24.81
2022-09-03T03:14:43.036Z,24.86
2022-09-03T03:17:10.156Z,24.90
2022-09-03T03:19:37.287Z,24.90
2022-09-03T03:22:06.996Z,24.84
2022-09-03T03:24:34.095Z,24.76
2022-09-03T03:27:01.276Z,24.72
2022-09-03T03:29:28.343Z,24.77
2022-09-03T03:31:55.503Z,24.82
2022-09-03T03:34:22.583Z,24.77
2022-09-03T03:36:49.693Z,24.74
2022-09-03T03:39:18.252Z,24.66
2022-09-03T03:41:45.381Z,24.61
2022-09-03T03:44:12.441Z,24.57
2022-09-03T03:46:41.483Z,24.58
2022-09-03T03:49:09.381Z,24.53
2022-09-03T03:51:38.521Z,24.51
2022-09-03T03:54:05.914Z,24.52
2022-09-03T03:56:35.242Z,24.52
2022-09-03T03:59:02.741Z,24.46
2022-09-03T04:01:30.416Z,24.43
2022-09-03T04:03:59.044Z,24.37
2022-09-03T04:06:27.001Z,24.42
2022-09-03T04:08:54.241Z,24.42
2022-09-03T04:11:24.105Z,24.43
2022-09-03T04:13:53.962Z,24.43
2022-09-03T04:16:22.930Z,24.42
2022-09-03T04:18:51.225Z,24.45
2022-09-03T04:21:20.503Z,24.46
2022-09-03T04:23:49.442Z,24.46
2022-09-03T04:26:21.162Z,24.48
2022-09-03T04:28:48.802Z,24.44
2022-09-03T04:31:19.843Z,24.43
2022-09-03T04:33:47.484Z,24.45
2022-09-03T04:36:16.424Z,24.47
2022-09-03T04:38:45.464Z,24.41
2022-09-03T04:41:14.515Z,24.43
2022-09-03T04:43:42.487Z,24.42
2022-09-03T04:46:16.048Z,24.46
2022-09-03T04:48:49.063Z,24.41
2022-09-03T04:51:18.662Z,24.40
2022-09-03T04:53:47.702Z,24.48
2022-09-03T04:56:17.563Z,24.44
2022-09-03T04:58:45.823Z,24.42
2022-09-03T05:01:18.357Z,24.44
2022-09-03T05:03:48.463Z,24.42
2022-09-03T05:06:15.547Z,24.42
2022-09-03T05:08:43.102Z,24.45
2022-09-03T05:11:10.666Z,24.46
2022-09-03T05:13:37.865Z,24.44
2022-09-03T05:16:07.184Z,24.46
2022-09-03T05:18:34.982Z,24.41
2022-09-03T05:21:06.163Z,24.44
2022-09-03T05:23:37.812Z,24.45
2022-09-03T05:26:07.334Z,24.47
2022-09-03T05:28:40.006Z,24.47
2022-09-03T05:31:10.224Z,24.48
2022-09-03T05:33:39.375Z,24.49
2022-09-03T05:36:10.637Z,24.53
2022-09-03T05:38:38.635Z,24.59
2022-09-03T05:41:08.396Z,24.60
2022-09-03T05:43:36.714Z,24.64
2022-09-03T05:46:06.043Z,24.69
2022-09-03T05:48:35.338Z,24.69
2022-09-03T05:51:04.495Z,24.71
2022-09-03T05:53:34.951Z,24.75
2022-09-03T05:56:04.972Z,24.85
2022-09-03T05:58:33.086Z,24.85
2022-09-03T06:01:00.189Z,24.93
2022-09-03T06:03:27.685Z,24.93
2022-09-03T06:05:55.455Z,24.93
2022-09-03T06:08:22.920Z,24.93
2022-09-03T06:10:51.449Z,24.91
2022-09-03T06:13:18.658Z,24.91
2022-09-03T06:15:45.771Z,24.98
2022-09-03T06:18:12.831Z,24.92
2022-09-03T06:20:39.950Z,24.93
2022-09-03T06:23:07.090Z,24.92
2022-09-03T06:25:34.130Z,24.91
2022-09-03T06:28:03.078Z,24.90
2022-09-03T06:30:30.170Z,24.94
2022-09-03T06:32:57.336Z,24.99
2022-09-03T06:35:24.471Z,24.96
2022-09-03T06:37:51.793Z,24.96
2022-09-03T06:40:18.911Z,24.93
2022-09-03T06:42:56.950Z,24.88
2022-09-03T06:45:25.640Z,24.86
2022-09-03T06:47:54.390Z,24.82
2022-09-03T06:50:21.582Z,24.80
2022-09-03T06:52:52.270Z,24.79
2022-09-03T06:55:19.352Z,24.85
2022-09-03T06:57:46.377Z,24.84
2022-09-03T07:00:15.231Z,24.86
2022-09-03T07:02:45.051Z,24.87
2022-09-03T07:05:12.236Z,24.89
2022-09-03T07:07:39.302Z,24.89
2022-09-03T07:10:07.841Z,24.87
2022-09-03T07:12:34.942Z,24.83
2022-09-03T07:15:02.021Z,24.78
2022-09-03T07:17:29.123Z,24.78
2022-09-03T07:19:57.761Z,24.78
2022-09-03T07:22:26.067Z,24.78
2022-09-03T07:24:58.803Z,24.83
2022-09-03T07:27:25.922Z,24.87
2022-09-03T07:29:52.982Z,24.88
2022-09-03T07:32:20.121Z,24.88
2022-09-03T07:34:47.201Z,24.89
2022-09-03T07:37:15.704Z,24.82
2022-09-03T07:39:42.818Z,24.80
2022-09-03T07:42:09.942Z,24.81
2022-09-03T07:44:37.047Z,24.80
2022-09-03T07:47:04.242Z,24.78
2022-09-03T07:49:31.383Z,24.73
2022-09-03T07:51:58.423Z,24.72
2022-09-03T07:54:26.981Z,24.71
2022-09-03T07:56:54.168Z,24.66
2022-09-03T07:59:21.267Z,24.63
2022-09-03T08:01:48.701Z,24.62
2022-09-03T08:04:15.830Z,24.60
2022-09-03T08:06:42.982Z,24.64
2022-09-03T08:09:12.602Z,24.67
2022-09-03T08:11:43.992Z,24.77
2022-09-03T08:14:13.304Z,24.87
2022-09-03T08:16:42.844Z,24.86
2022-09-03T08:19:10.122Z,24.82
2022-09-03T08:21:37.281Z,24.77
2022-09-03T08:24:05.041Z,24.77
2022-09-03T08:26:33.840Z,24.81
2022-09-03T08:29:03.941Z,24.80
2022-09-03T08:31:32.194Z,24.75
2022-09-03T08:34:02.174Z,24.73
2022-09-03T08:36:31.461Z,24.78
2022-09-03T08:39:00.321Z,24.74
2022-09-03T08:41:39.081Z,24.71
2022-09-03T08:44:22.243Z,24.71
2022-09-03T08:46:55.649Z,24.68
2022-09-03T08:49:29.062Z,24.65
2022-09-03T08:52:02.561Z,24.66
2022-09-03T08:54:32.561Z,24.60
2022-09-03T08:57:03.806Z,24.60
2022-09-03T08:59:33.204Z,24.59
2022-09-03T09:02:21.860Z,24.63
2022-09-03T09:05:03.543Z,24.67
2022-09-03T09:07:44.742Z,24.77
2022-09-03T09:10:23.184Z,24.80
2022-09-03T09:13:08.940Z,24.85
2022-09-03T09:15:48.877Z,24.82
2022-09-03T09:18:27.783Z,24.74
2022-09-03T09:21:03.042Z,24.74
2022-09-03T09:23:36.640Z,24.76
2022-09-03T09:26:10.501Z,24.83
2022-09-03T09:28:39.306Z,24.93
2022-09-03T09:31:12.194Z,24.82
2022-09-03T09:33:39.524Z,24.92
2022-09-03T09:36:10.501Z,24.88
2022-09-03T09:38:39.722Z,24.87
2022-09-03T09:41:12.522Z,24.99
2022-09-03T09:43:40.663Z,24.97
2022-09-03T09:46:14.682Z,24.95
2022-09-03T09:48:50.367Z,24.86
2022-09-03T09:51:22.664Z,24.86
2022-09-03T09:54:02.103Z,24.87
2022-09-03T09:56:29.662Z,24.86
2022-09-03T09:59:04.765Z,24.87
2022-09-03T10:01:35.840Z,24.81
2022-09-03T10:04:10.985Z,24.76
2022-09-03T10:06:39.504Z,24.74
2022-09-03T10:09:08.805Z,24.69
2022-09-03T10:11:38.946Z,24.73
2022-09-03T10:14:14.948Z,24.77
2022-09-03T10:16:54.545Z,24.82
2022-09-03T10:19:34.361Z,24.88
2022-09-03T10:22:10.202Z,24.86
2022-09-03T10:24:52.282Z,24.97
2022-09-03T10:27:20.543Z,25.04
2022-09-03T10:29:47.883Z,25.06
2022-09-03T10:32:34.252Z,25.11
2022-09-03T10:35:20.702Z,25.17
2022-09-03T10:38:00.761Z,25.23
2022-09-03T10:40:38.080Z,25.36
2022-09-03T10:43:24.261Z,25.68
2022-09-03T10:46:03.031Z,26.00
2022-09-03T10:48:50.522Z,26.04
2022-09-03T10:51:20.429Z,26.21
2022-09-03T10:54:27.560Z,26.24
2022-09-03T10:57:04.181Z,26.31
2022-09-03T10:59:45.761Z,26.33
2022-09-03T11:02:33.993Z,26.51
2022-09-03T11:05:08.722Z,26.65
2022-09-03T11:07:41.220Z,26.70
2022-09-03T11:10:18.621Z,26.82
2022-09-03T11:12:55.728Z,26.79
2022-09-03T11:15:31.108Z,26.71
2022-09-03T11:18:04.881Z,26.92
2022-09-03T11:20:35.391Z,27.09
2022-09-03T11:23:05.940Z,27.09
2022-09-03T11:25:41.821Z,26.93
2022-09-03T11:28:22.232Z,27.10
2022-09-03T11:31:13.962Z,27.18
2022-09-03T11:33:47.545Z,27.24
2022-09-03T11:36:30.081Z,27.25
2022-09-03T11:38:57.223Z,27.31
2022-09-03T11:41:26.701Z,27.47
2022-09-03T11:43:54.645Z,27.56
2022-09-03T11:46:30.431Z,27.58
2022-09-03T11:49:10.960Z,27.84
2022-09-03T11:51:41.065Z,27.59
2022-09-03T11:54:25.579Z,27.96
2022-09-03T11:57:12.020Z,28.13
2022-09-03T11:59:42.361Z,27.73
2022-09-03T12:02:28.277Z,28.07
2022-09-03T12:05:18.000Z,28.26
2022-09-03T12:08:09.085Z,28.46
2022-09-03T12:10:50.381Z,28.58
2022-09-03T12:13:31.521Z,28.60
2022-09-03T12:16:36.641Z,28.50
2022-09-03T12:19:13.520Z,28.38
2022-09-03T12:21:40.964Z,28.41
2022-09-03T12:24:12.082Z,28.28
2022-09-03T12:26:42.021Z,28.32
2022-09-03T12:29:24.084Z,28.47
2022-09-03T12:31:55.444Z,28.51
2022-09-03T12:34:24.481Z,28.67
2022-09-03T12:36:54.283Z,28.67
2022-09-03T12:42:21.204Z,28.66
2022-09-03T12:44:48.262Z,28.72
2022-09-03T12:47:35.639Z,28.58
2022-09-03T12:50:09.062Z,28.35
2022-09-03T12:52:41.883Z,28.35
2022-09-03T12:55:27.582Z,28.21
2022-09-03T12:58:11.519Z,28.47
2022-09-03T13:00:47.640Z,28.47
2022-09-03T13:03:21.966Z,28.39
2022-09-03T13:05:55.582Z,28.26
2022-09-03T13:08:26.421Z,28.18
2022-09-03T13:10:59.479Z,28.07
2022-09-03T13:13:29.461Z,28.02
2022-09-03T13:16:36.279Z,28.09
2022-09-03T13:19:15.641Z,28.04
2022-09-03T13:21:54.778Z,27.94
2022-09-03T13:24:50.683Z,27.92
2022-09-03T13:27:31.641Z,28.00
2022-09-03T13:30:07.820Z,28.09
2022-09-03T13:32:57.943Z,27.73
2022-09-03T13:35:34.702Z,27.94
2022-09-03T13:38:13.103Z,27.93
2022-09-03T13:40:48.682Z,27.95
2022-09-03T13:43:30.264Z,28.03
2022-09-03T13:46:03.602Z,28.01
2022-09-03T13:48:38.822Z,27.99
2022-09-03T13:51:16.283Z,27.96
2022-09-03T13:53:58.340Z,27.57
2022-09-03T13:56:38.362Z,27.73
2022-09-03T13:59:18.683Z,27.73
2022-09-03T14:02:16.451Z,27.93
2022-09-03T14:04:58.761Z,28.15
2022-09-03T14:07:38.262Z,28.27
2022-09-03T14:10:19.243Z,28.44
2022-09-03T14:12:55.922Z,28.67
2022-09-03T14:15:30.664Z,28.79
2022-09-03T14:18:10.643Z,28.70
2022-09-03T14:20:46.503Z,28.78
2022-09-03T14:23:33.306Z,29.04
2022-09-03T14:26:05.842Z,29.27
2022-09-03T14:28:37.064Z,29.39
2022-09-03T14:31:19.824Z,29.49
2022-09-03T14:34:00.864Z,29.33
2022-09-03T14:36:35.983Z,29.20
2022-09-03T14:39:26.862Z,29.29
2022-09-03T14:42:31.388Z,29.24
2022-09-03T14:45:32.665Z,29.17
2022-09-03T14:48:27.180Z,29.21
2022-09-03T14:51:24.844Z,29.17
2022-09-03T14:54:30.515Z,29.14
2022-09-03T14:57:17.188Z,29.16
2022-09-03T15:00:02.154Z,29.18
2022-09-03T15:02:53.463Z,29.14
2022-09-03T15:05:43.212Z,29.08
2022-09-03T15:08:28.423Z,29.11
2022-09-03T15:10:59.886Z,29.14
2022-09-03T15:13:33.623Z,29.10
2022-09-03T15:16:21.053Z,29.10
2022-09-03T15:19:10.265Z,29.03
2022-09-03T15:21:56.343Z,28.99
2022-09-03T15:24:37.362Z,29.00
2022-09-03T15:27:19.654Z,28.97
2022-09-03T15:29:52.061Z,28.95
2022-09-03T15:32:38.984Z,28.94
2022-09-03T15:35:09.479Z,28.94
2022-09-03T15:37:49.064Z,28.99
2022-09-03T15:40:29.003Z,28.72
2022-09-03T15:43:06.982Z,28.87
2022-09-03T15:45:49.517Z,28.86
2022-09-03T15:48:29.477Z,28.64
2022-09-03T15:51:12.426Z,28.45
2022-09-03T15:53:50.845Z,28.39
2022-09-03T15:56:26.983Z,28.34
2022-09-03T15:59:02.902Z,28.34
2022-09-03T16:01:40.264Z,28.39
2022-09-03T16:04:22.603Z,28.32
2022-09-03T16:06:59.482Z,28.34
2022-09-03T16:10:22.750Z,28.32
2022-09-03T16:12:53.655Z,28.34
2022-09-03T16:15:26.123Z,28.33
2022-09-03T16:18:02.586Z,28.38
2022-09-03T16:20:38.984Z,28.36
2022-09-03T16:23:13.144Z,28.39
2022-09-03T16:25:52.423Z,28.36
2022-09-03T16:28:28.703Z,28.36
2022-09-03T16:31:11.946Z,28.27
2022-09-03T16:33:53.343Z,28.29
2022-09-03T16:36:43.646Z,28.03
2022-09-03T16:39:25.653Z,27.97
2022-09-03T16:42:06.626Z,28.06
2022-09-03T16:44:47.602Z,28.09
2022-09-03T16:47:27.004Z,27.69
2022-09-03T16:50:13.783Z,27.91
2022-09-03T16:52:59.421Z,27.43
2022-09-03T16:55:38.881Z,27.79
2022-09-03T16:58:20.895Z,27.84
2022-09-03T17:01:06.675Z,27.88
2022-09-03T17:04:08.102Z,27.86
2022-09-03T17:06:58.743Z,27.81
2022-09-03T17:09:42.341Z,27.82
2022-09-03T17:12:25.523Z,27.76
2022-09-03T17:15:16.963Z,27.78
2022-09-03T17:18:01.303Z,27.76
2022-09-03T17:20:49.511Z,27.78
2022-09-03T17:23:43.185Z,27.74
2022-09-03T17:26:16.963Z,27.51
2022-09-03T17:29:02.502Z,27.68
2022-09-03T17:31:43.832Z,27.99
2022-09-03T17:34:30.983Z,28.12
2022-09-03T17:37:22.102Z,28.21
2022-09-03T17:40:04.554Z,28.25
2022-09-03T17:42:48.582Z,28.21
2022-09-03T17:45:26.923Z,28.33
2022-09-03T17:48:20.561Z,28.36
2022-09-03T17:50:56.082Z,28.39
2022-09-03T17:53:32.322Z,27.58
2022-09-03T17:56:05.184Z,27.75
2022-09-03T17:58:39.283Z,28.00
2022-09-03T18:01:17.508Z,28.05
2022-09-03T18:03:54.303Z,27.32
2022-09-03T18:06:34.283Z,27.82
2022-09-03T18:09:06.522Z,27.93
2022-09-03T18:11:40.581Z,28.00
2022-09-03T18:14:17.463Z,28.08
2022-09-03T18:16:53.044Z,28.14
2022-09-03T18:19:33.622Z,28.20
2022-09-03T18:22:05.479Z,28.28
2022-09-03T18:24:41.647Z,28.00
2022-09-03T18:27:14.922Z,28.14
2022-09-03T18:29:52.371Z,28.14
2022-09-03T18:32:21.582Z,27.79
2022-09-03T18:34:50.260Z,27.54
2022-09-03T18:37:21.340Z,27.39
2022-09-03T18:39:48.664Z,27.21
2022-09-03T18:42:29.139Z,27.03
2022-09-03T18:45:21.367Z,26.95
2022-09-03T18:48:13.930Z,26.88
2022-09-03T18:50:57.443Z,26.87
2022-09-03T18:53:35.922Z,26.78
2022-09-03T18:56:15.876Z,26.71
2022-09-03T18:59:03.099Z,26.63
2022-09-03T19:01:35.631Z,26.55
2022-09-03T19:04:13.606Z,26.51
2022-09-03T19:06:55.180Z,26.52
2022-09-03T19:09:41.859Z,26.41
2022-09-03T19:12:28.721Z,26.38
2022-09-03T19:15:03.440Z,26.42
2022-09-03T19:17:50.641Z,26.44
2022-09-03T19:20:28.580Z,26.45
2022-09-03T19:22:57.220Z,26.39
2022-09-03T19:25:26.560Z,26.30
2022-09-03T19:28:10.981Z,26.29
2022-09-03T19:31:05.927Z,26.22
2022-09-03T19:33:47.040Z,26.24
2022-09-03T19:36:23.381Z,26.26
2022-09-03T19:39:13.260Z,26.23
2022-09-03T19:41:52.842Z,26.24
2022-09-03T19:44:43.641Z,26.25
2022-09-03T19:47:22.392Z,26.24
2022-09-03T19:50:03.612Z,26.23
2022-09-03T19:52:45.061Z,26.28
2022-09-03T19:55:20.999Z,26.27
2022-09-03T19:57:58.020Z,26.33
2022-09-03T20:00:33.070Z,26.25
2022-09-03T20:03:02.976Z,26.27
2022-09-03T20:05:32.079Z,26.32
2022-09-03T20:08:00.539Z,26.26
2022-09-03T20:10:29.142Z,26.29
2022-09-03T20:13:08.459Z,26.34
2022-09-03T20:15:50.838Z,26.34
2022-09-03T20:18:34.021Z,26.28
2022-09-03T20:21:12.340Z,26.26
2022-09-03T20:23:54.788Z,26.20
2022-09-03T20:26:42.079Z,26.14
2022-09-03T20:29:40.361Z,26.04
2022-09-03T20:32:16.740Z,25.97
2022-09-03T20:34:56.101Z,25.86
2022-09-03T20:37:31.920Z,25.83
2022-09-03T20:40:15.311Z,25.77
2022-09-03T20:43:14.786Z,25.77
2022-09-03T20:45:58.288Z,25.75
2022-09-03T20:48:36.291Z,25.72
2022-09-03T20:51:12.960Z,25.65
2022-09-03T20:54:05.918Z,25.70
2022-09-03T20:56:48.180Z,26.00
2022-09-03T20:59:29.213Z,25.86
2022-09-03T21:02:09.220Z,25.82
2022-09-03T21:04:50.649Z,25.72
2022-09-03T21:07:29.453Z,25.66
2022-09-03T21:10:10.212Z,25.60
2022-09-03T21:12:49.362Z,25.60
2022-09-03T21:15:24.292Z,25.64
2022-09-03T21:18:06.962Z,25.65
2022-09-03T21:20:45.812Z,25.61
2022-09-03T21:23:21.751Z,25.61
2022-09-03T21:25:55.910Z,25.58
2022-09-03T21:28:29.031Z,25.60
2022-09-03T21:31:02.994Z,25.60
2022-09-03T21:33:37.352Z,25.59
2022-09-03T21:36:12.235Z,25.58
2022-09-03T21:38:51.555Z,25.58
2022-09-03T21:41:26.131Z,25.56
2022-09-03T21:44:01.129Z,25.55
2022-09-03T21:46:36.051Z,25.54
2022-09-03T21:49:09.633Z,25.51
2022-09-03T21:51:43.910Z,25.47
2022-09-03T21:54:20.551Z,25.42
2022-09-03T21:57:01.052Z,25.37
2022-09-03T21:59:53.956Z,25.31
2022-09-03T22:02:25.373Z,25.32
2022-09-03T22:04:56.482Z,25.31
2022-09-03T22:07:39.745Z,25.26
2022-09-03T22:10:16.686Z,25.31
2022-09-03T22:12:58.662Z,25.32
2022-09-03T22:15:25.841Z,25.32
2022-09-03T22:18:05.724Z,25.34
2022-09-03T22:20:36.722Z,25.39
2022-09-03T22:23:14.961Z,25.36
2022-09-03T22:25:52.641Z,25.38
2022-09-03T22:28:30.041Z,25.40
2022-09-03T22:31:06.381Z,25.40
2022-09-03T22:33:45.206Z,25.36
2022-09-03T22:36:21.326Z,25.32
2022-09-03T22:39:12.502Z,25.23
2022-09-03T22:41:58.843Z,25.17
2022-09-03T22:44:48.822Z,25.18
2022-09-03T22:47:33.912Z,25.14
2022-09-03T22:50:18.522Z,25.12
2022-09-03T22:53:01.102Z,25.04
2022-09-03T22:55:29.361Z,25.00
2022-09-03T22:58:03.863Z,24.99
2022-09-03T23:00:39.881Z,25.04
2022-09-03T23:03:10.786Z,24.99
2022-09-03T23:05:48.983Z,24.99
2022-09-03T23:08:24.641Z,24.96
2022-09-03T23:11:06.183Z,24.92
2022-09-03T23:13:39.402Z,24.84
2022-09-03T23:16:13.991Z,24.80
2022-09-03T23:18:45.563Z,24.79
2022-09-03T23:21:21.582Z,24.76
2022-09-03T23:23:58.503Z,24.73
2022-09-03T23:26:36.201Z,24.73
2022-09-03T23:29:12.235Z,24.71
2022-09-03T23:31:39.724Z,24.68
2022-09-03T23:34:09.127Z,24.73
2022-09-03T23:37:32.059Z,24.75
2022-09-03T23:40:10.323Z,24.76
2022-09-03T23:42:57.187Z,24.81
2022-09-03T23:45:39.371Z,24.85
2022-09-03T23:48:22.464Z,24.93
2022-09-03T23:51:02.054Z,24.94
2022-09-03T23:53:40.242Z,25.01
2022-09-03T23:56:44.202Z,25.09
2022-09-03T23:59:21.344Z,25.07
